Time,TemperatureF,DewpointF,PressureIn,WindDirection,WindDirectionDegrees,WindSpeedMPH,WindSpeedGustMPH,Humidity,HourlyPrecipIn,Conditions,Clouds,dailyrainin,SolarRadiationWatts/m^2,SoftwareType,DateUTC
2013-03-26 00:01:00,37.0,19.0,30.00,WSW,257,3.0,5.0,46,-99.99,,,-99.99,-0.100000,,2013-03-26 06:01:00,
2013-03-26 00:11:00,37.0,18.0,30.00,SSW,205,4.0,6.0,45,-99.99,,,-99.99,-0.100000,,2013-03-26 06:11:00,
2013-03-26 00:21:00,38.0,18.0,30.00,ESE,109,2.0,5.0,45,-99.99,,,-99.99,0.000000,,2013-03-26 06:21:00,
2013-03-26 00:31:00,37.0,21.0,29.99,NE,35,4.0,8.0,51,-99.99,,,-99.99,-0.100000,,2013-03-26 06:31:00,
2013-03-26 00:41:00,36.0,19.0,29.99,NNE,20,3.0,6.0,50,-99.99,,,-99.99,-0.100000,,2013-03-26 06:41:00,
2013-03-26 00:52:00,37.0,21.0,29.98,NNE,29,4.0,7.0,52,-99.99,,,-99.99,-0.100000,,2013-03-26 06:52:00,
2013-03-26 01:02:00,38.0,19.0,29.98,NNE,21,6.0,9.0,45,-99.99,,,-99.99,-0.100000,,2013-03-26 07:02:00,
2013-03-26 01:11:00,35.0,21.0,29.97,NNE,23,4.0,6.0,56,-99.99,,,-99.99,0.000000,,2013-03-26 07:11:00,
2013-03-26 01:32:00,35.0,21.0,29.97,East,95,4.0,5.0,55,-99.99,,,-99.99,-0.100000,,2013-03-26 07:32:00,
2013-03-26 01:41:00,37.0,20.0,29.97,WNW,302,4.0,7.0,50,-99.99,,,-99.99,-0.100000,,2013-03-26 07:41:00,
2013-03-26 01:52:00,36.0,21.0,29.96,SE,142,1.0,2.0,53,-99.99,,,-99.99,-0.100000,,2013-03-26 07:52:00,
2013-03-26 02:01:00,34.0,22.0,29.96,East,88,2.0,3.0,60,-99.99,,,-99.99,-0.100000,,2013-03-26 08:01:00,
2013-03-26 02:12:00,34.0,22.0,29.96,NW,311,2.0,3.0,61,-99.99,,,-99.99,-0.100000,,2013-03-26 08:12:00,
2013-03-26 02:22:00,-999.0,-99.9,29.97,West,265,1.0,2.0,-999,-99.99,,,-99.99,,,2013-03-26 08:22:00,
2013-03-26 02:31:00,33.0,24.0,29.96,NE,38,2.0,3.0,67,-99.99,,,-99.99,-0.100000,,2013-03-26 08:31:00,
2013-03-26 02:41:00,34.0,23.0,29.95,ESE,103,3.0,4.0,64,-99.99,,,-99.99,-0.100000,,2013-03-26 08:41:00,
2013-03-26 02:51:00,34.0,22.0,29.95,NE,47,3.0,4.0,62,-99.99,,,-99.99,0.000000,,2013-03-26 08:51:00,
2013-03-26 03:01:00,34.0,22.0,29.95,ENE,64,4.0,5.0,61,-99.99,,,-99.99,-0.100000,,2013-03-26 09:01:00,
2013-03-26 03:11:00,33.0,22.0,29.95,ENE,76,3.0,4.0,63,-99.99,,,-99.99,-0.100000,,2013-03-26 09:11:00,
2013-03-26 03:21:00,33.0,22.0,29.95,NE,39,2.0,5.0,63,-99.99,,,-99.99,-0.100000,,2013-03-26 09:21:00,
2013-03-26 03:32:00,33.0,24.0,29.95,NW,313,3.0,4.0,67,-99.99,,,-99.99,-0.100000,,2013-03-26 09:32:00,
2013-03-26 03:42:00,32.0,24.0,29.94,NW,312,3.0,4.0,72,-99.99,,,-99.99,-0.100000,,2013-03-26 09:42:00,
2013-03-26 03:51:00,32.0,25.0,29.94,NNE,14,4.0,5.0,73,-99.99,,,-99.99,-0.100000,,2013-03-26 09:51:00,
2013-03-26 04:02:00,33.0,24.0,29.94,North,0,3.0,5.0,69,-99.99,,,-99.99,-0.100000,,2013-03-26 10:02:00,
2013-03-26 04:12:00,33.0,24.0,29.93,NNE,12,4.0,4.0,69,-99.99,,,-99.99,0.000000,,2013-03-26 10:12:00,
2013-03-26 04:22:00,32.0,25.0,29.93,NNE,25,3.0,4.0,73,-99.99,,,-99.99,-0.100000,,2013-03-26 10:22:00,
2013-03-26 04:32:00,32.0,25.0,29.93,ENE,69,2.0,3.0,73,-99.99,,,-99.99,-0.100000,,2013-03-26 10:32:00,
2013-03-26 04:42:00,31.0,24.0,29.92,ENE,77,2.0,2.0,74,-99.99,,,-99.99,-0.100000,,2013-03-26 10:42:00,
2013-03-26 04:52:00,32.0,25.0,29.92,NE,48,2.0,3.0,74,-99.99,,,-99.99,-0.100000,,2013-03-26 10:52:00,
2013-03-26 05:02:00,31.0,24.0,29.92,NNW,341,2.0,2.0,73,-99.99,,,-99.99,0.000000,,2013-03-26 11:02:00,
2013-03-26 05:11:00,31.0,25.0,29.93,NNW,337,3.0,4.0,76,-99.99,,,-99.99,-0.100000,,2013-03-26 11:11:00,
2013-03-26 05:23:00,-999.0,-99.9,29.94,North,352,6.0,8.0,-999,-99.99,,,-99.99,,,2013-03-26 11:23:00,
2013-03-26 05:32:00,31.0,25.0,29.93,North,6,8.0,11.0,78,-99.99,,,-99.99,-0.100000,,2013-03-26 11:32:00,
2013-03-26 05:42:00,32.0,25.0,29.92,NNE,12,11.0,14.0,75,-99.99,,,-99.99,-0.100000,,2013-03-26 11:42:00,
2013-03-26 05:51:00,32.0,25.0,29.92,NNE,15,10.0,13.0,74,-99.99,,,-99.99,-0.100000,,2013-03-26 11:51:00,
2013-03-26 06:02:00,32.0,25.0,29.92,NNE,14,9.0,12.0,74,-99.99,,,-99.99,-0.100000,,2013-03-26 12:02:00,
2013-03-26 06:11:00,31.0,25.0,29.92,NE,51,5.0,6.0,77,-99.99,,,-99.99,-0.100000,,2013-03-26 12:11:00,
2013-03-26 06:21:00,31.0,25.0,29.92,East,90,3.0,4.0,77,-99.99,,,-99.99,-0.100000,,2013-03-26 12:21:00,
2013-03-26 06:32:00,33.0,-99.9,29.92,East,98,6.0,9.0,-999,-99.99,,,-99.99,0.000000,,2013-03-26 12:32:00,
2013-03-26 06:41:00,34.0,23.0,29.92,East,90,8.0,11.0,62,-99.99,,,-99.99,-0.100000,,2013-03-26 12:41:00,
2013-03-26 06:51:00,34.0,23.0,29.92,ENE,64,8.0,10.0,63,-99.99,,,-99.99,-0.100000,,2013-03-26 12:51:00,
2013-03-26 07:02:00,33.0,24.0,29.92,North,4,8.0,9.0,68,-99.99,,,-99.99,0.000000,,2013-03-26 13:02:00,
2013-03-26 07:11:00,32.0,25.0,29.92,North,358,9.0,10.0,74,-99.99,,,-99.99,0.000000,,2013-03-26 13:11:00,
2013-03-26 07:22:00,33.0,24.0,29.91,NNE,30,9.0,11.0,69,-99.99,,,-99.99,0.000000,,2013-03-26 13:22:00,
2013-03-26 07:32:00,33.0,23.0,29.91,NE,35,8.0,9.0,66,-99.99,,,-99.99,0.500000,,2013-03-26 13:32:00,
2013-03-26 07:41:00,32.0,24.0,29.92,NNE,27,7.0,9.0,72,-99.99,,,-99.99,5.300000,,2013-03-26 13:41:00,
2013-03-26 07:52:00,31.0,24.0,29.92,NNE,22,7.0,10.0,74,-99.99,,,-99.99,9.400000,,2013-03-26 13:52:00,
2013-03-26 08:01:00,31.0,24.0,29.92,NNE,13,7.0,9.0,75,-99.99,,,-99.99,17.799999,,2013-03-26 14:01:00,
2013-03-26 08:11:00,31.0,24.0,29.92,NNE,13,6.0,8.0,73,-99.99,,,-99.99,31.700001,,2013-03-26 14:11:00,
2013-03-26 08:21:00,32.0,24.0,29.92,NNE,19,6.0,8.0,72,-99.99,,,-99.99,40.599998,,2013-03-26 14:21:00,
2013-03-26 08:32:00,32.0,24.0,29.92,NNE,32,4.0,5.0,72,-99.99,,,-99.99,57.200001,,2013-03-26 14:32:00,
2013-03-26 08:41:00,33.0,24.0,29.92,NNE,18,6.0,7.0,70,-99.99,,,-99.99,59.599998,,2013-03-26 14:41:00,
2013-03-26 08:51:00,33.0,24.0,29.92,NNE,12,8.0,10.0,69,-99.99,,,-99.99,69.699997,,2013-03-26 14:51:00,
2013-03-26 09:02:00,34.0,24.0,29.93,NNE,18,6.0,8.0,67,-99.99,,,-99.99,98.099998,,2013-03-26 15:02:00,
2013-03-26 09:11:00,34.0,24.0,29.92,NNE,22,5.0,7.0,66,-99.99,,,-99.99,184.899994,,2013-03-26 15:11:00,
2013-03-26 09:32:00,35.0,24.0,29.92,NNE,20,7.0,9.0,63,-99.99,,,-99.99,179.399994,,2013-03-26 15:32:00,
2013-03-26 09:42:00,36.0,24.0,29.92,North,6,8.0,9.0,62,-99.99,,,-99.99,187.000000,,2013-03-26 15:42:00,
2013-03-26 09:52:00,36.0,26.0,29.92,North,1,11.0,13.0,66,-99.99,,,-99.99,196.100006,,2013-03-26 15:52:00,
2013-03-26 10:02:00,36.0,27.0,29.92,North,4,11.0,13.0,67,-99.99,,,-99.99,208.399994,,2013-03-26 16:02:00,
2013-03-26 10:12:00,37.0,28.0,29.92,North,356,10.0,12.0,68,-99.99,,,-99.99,218.399994,,2013-03-26 16:12:00,
2013-03-26 10:22:00,37.0,27.0,29.92,North,1,10.0,12.0,65,-99.99,,,-99.99,174.300003,,2013-03-26 16:22:00,
2013-03-26 10:32:00,38.0,27.0,29.92,North,355,9.0,11.0,64,-99.99,,,-99.99,177.199997,,2013-03-26 16:32:00,
2013-03-26 10:42:00,38.0,27.0,29.92,North,350,9.0,12.0,63,-99.99,,,-99.99,201.500000,,2013-03-26 16:42:00,
2013-03-26 10:53:00,38.0,27.0,29.93,North,352,9.0,11.0,64,-99.99,,,-99.99,191.100006,,2013-03-26 16:53:00,
2013-03-26 11:12:00,-999.0,-99.9,29.94,North,357,10.0,12.0,-999,-99.99,,,-99.99,175.500000,,2013-03-26 17:12:00,
2013-03-26 11:23:00,-999.0,-99.9,29.94,North,2,9.0,12.0,-999,-99.99,,,-99.99,,,2013-03-26 17:23:00,
2013-03-26 11:32:00,39.0,28.0,29.93,North,359,7.0,9.0,64,-99.99,,,-99.99,519.500000,,2013-03-26 17:32:00,
2013-03-26 11:41:00,40.0,26.0,29.93,NNW,331,4.0,10.0,57,-99.99,,,-99.99,441.000000,,2013-03-26 17:41:00,
2013-03-26 11:53:00,-999.0,-99.9,29.94,NW,312,6.0,8.0,-999,-99.99,,,-99.99,,,2013-03-26 17:53:00,
2013-03-26 12:02:00,42.0,27.0,29.93,NNW,330,5.0,8.0,56,-99.99,,,-99.99,539.900024,,2013-03-26 18:02:00,
2013-03-26 12:12:00,42.0,27.0,29.93,NW,308,5.0,7.0,55,-99.99,,,-99.99,417.299988,,2013-03-26 18:12:00,
2013-03-26 12:22:00,42.0,28.0,29.93,North,359,3.0,7.0,57,-99.99,,,-99.99,467.200012,,2013-03-26 18:22:00,
2013-03-26 12:33:00,42.0,29.0,29.93,NNE,21,6.0,8.0,58,-99.99,,,-99.99,535.599976,,2013-03-26 18:33:00,
2013-03-26 12:41:00,42.0,30.0,29.93,North,358,5.0,9.0,60,-99.99,,,-99.99,447.299988,,2013-03-26 18:41:00,
2013-03-26 12:52:00,42.0,29.0,29.93,NNW,334,6.0,8.0,60,-99.99,,,-99.99,433.200012,,2013-03-26 18:52:00,
2013-03-26 13:02:00,42.0,30.0,29.93,North,353,7.0,9.0,61,-99.99,,,-99.99,419.100006,,2013-03-26 19:02:00,
2013-03-26 13:11:00,43.0,30.0,29.93,NNW,336,6.0,9.0,61,-99.99,,,-99.99,543.099976,,2013-03-26 19:11:00,
2013-03-26 13:21:00,43.0,31.0,29.93,North,358,7.0,8.0,60,-99.99,,,-99.99,703.799988,,2013-03-26 19:21:00,
2013-03-26 14:11:00,46.0,29.0,29.93,SW,230,6.0,11.0,50,-99.99,,,-99.99,312.799988,,2013-03-26 20:11:00,
2013-03-26 14:21:00,46.0,29.0,29.93,WSW,254,7.0,12.0,51,-99.99,,,-99.99,240.000000,,2013-03-26 20:21:00,
2013-03-26 14:32:00,45.0,28.0,29.93,SSW,195,9.0,13.0,50,-99.99,,,-99.99,226.899994,,2013-03-26 20:32:00,
2013-03-26 14:42:00,44.0,31.0,29.93,SSW,213,9.0,13.0,58,-99.99,,,-99.99,201.800003,,2013-03-26 20:42:00,
2013-03-26 15:01:00,43.0,32.0,29.93,NW,314,4.0,6.0,63,-99.99,,,-99.99,347.500000,,2013-03-26 21:01:00,
2013-03-26 15:11:00,43.0,31.0,29.93,North,4,4.0,6.0,62,-99.99,,,-99.99,252.000000,,2013-03-26 21:11:00,
2013-03-26 15:21:00,44.0,32.0,29.93,NNW,342,4.0,7.0,61,-99.99,,,-99.99,199.100006,,2013-03-26 21:21:00,
2013-03-26 15:32:00,44.0,31.0,29.93,NW,320,5.0,7.0,60,-99.99,,,-99.99,125.300003,,2013-03-26 21:32:00,
2013-03-26 15:42:00,44.0,32.0,29.94,SW,230,10.0,18.0,61,-99.99,,,-99.99,152.899994,,2013-03-26 21:42:00,
2013-03-26 15:52:00,44.0,33.0,29.94,SSW,210,12.0,17.0,66,-99.99,,,-99.99,254.199997,,2013-03-26 21:52:00,
2013-03-26 16:01:00,43.0,32.0,29.94,SSW,211,10.0,14.0,64,-99.99,,,-99.99,277.000000,,2013-03-26 22:01:00,
2013-03-26 16:11:00,44.0,30.0,29.93,SW,235,12.0,15.0,57,-99.99,,,-99.99,334.200012,,2013-03-26 22:11:00,
2013-03-26 16:22:00,43.0,30.0,29.94,WSW,239,8.0,11.0,58,-99.99,,,-99.99,199.699997,,2013-03-26 22:22:00,
2013-03-26 16:32:00,43.0,29.0,29.93,West,268,6.0,9.0,57,-99.99,,,-99.99,146.699997,,2013-03-26 22:32:00,
2013-03-26 16:41:00,43.0,30.0,29.93,WSW,246,5.0,7.0,59,-99.99,,,-99.99,104.800003,,2013-03-26 22:41:00,
2013-03-26 16:51:00,43.0,31.0,29.93,South,190,3.0,4.0,62,-99.99,,,-99.99,139.100006,,2013-03-26 22:51:00,
2013-03-26 17:00:00,43.0,31.0,29.93,SW,222,4.0,7.0,61,-99.99,,,-99.99,119.900002,,2013-03-26 23:00:00,
2013-03-26 17:10:00,43.0,31.0,29.93,WSW,237,4.0,6.0,60,-99.99,,,-99.99,132.300003,,2013-03-26 23:10:00,
2013-03-26 17:21:00,43.0,31.0,29.93,SW,218,5.0,9.0,60,-99.99,,,-99.99,195.300003,,2013-03-26 23:21:00,
2013-03-26 17:31:00,44.0,30.0,29.93,WSW,247,4.0,6.0,59,-99.99,,,-99.99,204.899994,,2013-03-26 23:31:00,
2013-03-26 17:42:00,44.0,30.0,29.94,WSW,240,5.0,8.0,59,-99.99,,,-99.99,182.800003,,2013-03-26 23:42:00,
2013-03-26 17:51:00,44.0,30.0,29.94,WSW,252,4.0,8.0,59,-99.99,,,-99.99,142.000000,,2013-03-26 23:51:00,
2013-03-26 18:01:00,44.0,30.0,29.93,SW,218,5.0,7.0,59,-99.99,,,-99.99,155.699997,,2013-03-27 00:01:00,
2013-03-26 18:11:00,44.0,31.0,29.93,West,266,5.0,6.0,59,-99.99,,,-99.99,184.399994,,2013-03-27 00:11:00,
2013-03-26 18:21:00,44.0,31.0,29.93,WSW,256,5.0,7.0,59,-99.99,,,-99.99,202.100006,,2013-03-27 00:21:00,
2013-03-26 18:32:00,44.0,31.0,29.93,WSW,251,4.0,6.0,59,-99.99,,,-99.99,221.899994,,2013-03-27 00:32:00,
2013-03-26 18:41:00,44.0,31.0,29.93,WSW,246,5.0,7.0,58,-99.99,,,-99.99,189.000000,,2013-03-27 00:41:00,
2013-03-26 18:51:00,44.0,31.0,29.93,SSW,209,4.0,6.0,59,-99.99,,,-99.99,186.600006,,2013-03-27 00:51:00,
2013-03-26 19:02:00,44.0,31.0,29.93,WSW,245,4.0,5.0,59,-99.99,,,-99.99,160.500000,,2013-03-27 01:02:00,
2013-03-26 19:11:00,44.0,30.0,29.93,SW,220,3.0,5.0,58,-99.99,,,-99.99,130.399994,,2013-03-27 01:11:00,
2013-03-26 19:21:00,44.0,30.0,29.93,WSW,245,3.0,4.0,59,-99.99,,,-99.99,61.400002,,2013-03-27 01:21:00,
2013-03-26 19:32:00,44.0,31.0,29.93,WSW,252,4.0,5.0,60,-99.99,,,-99.99,66.099998,,2013-03-27 01:32:00,
2013-03-26 19:41:00,43.0,31.0,29.93,West,264,4.0,6.0,61,-99.99,,,-99.99,32.200001,,2013-03-27 01:41:00,
2013-03-26 19:52:00,42.0,31.0,29.93,West,274,5.0,5.0,63,-99.99,,,-99.99,18.100000,,2013-03-27 01:52:00,
2013-03-26 20:02:00,42.0,31.0,29.93,West,266,4.0,5.0,64,-99.99,,,-99.99,7.900000,,2013-03-27 02:02:00,
2013-03-26 20:11:00,41.0,31.0,29.93,West,260,3.0,3.0,68,-99.99,,,-99.99,2.800000,,2013-03-27 02:11:00,
2013-03-26 20:21:00,40.0,31.0,29.93,West,270,3.0,4.0,71,-99.99,,,-99.99,0.700000,,2013-03-27 02:21:00,
2013-03-26 20:32:00,38.0,32.0,29.94,West,269,2.0,3.0,77,-99.99,,,-99.99,0.000000,,2013-03-27 02:32:00,
2013-03-26 20:42:00,37.0,30.0,29.94,ESE,119,2.0,2.0,74,-99.99,,,-99.99,0.000000,,2013-03-27 02:42:00,
2013-03-26 20:52:00,37.0,30.0,29.94,SE,129,2.0,2.0,74,-99.99,,,-99.99,0.000000,,2013-03-27 02:52:00,
2013-03-26 21:02:00,35.0,29.0,29.94,SE,137,2.0,2.0,77,-99.99,,,-99.99,0.000000,,2013-03-27 03:02:00,
2013-03-26 21:11:00,34.0,28.0,29.94,SSE,154,2.0,2.0,78,-99.99,,,-99.99,0.000000,,2013-03-27 03:11:00,
2013-03-26 21:21:00,34.0,29.0,29.95,East,94,2.0,2.0,80,-99.99,,,-99.99,0.000000,,2013-03-27 03:21:00,
2013-03-26 21:32:00,33.0,28.0,29.95,ESE,103,2.0,2.0,80,-99.99,,,-99.99,0.000000,,2013-03-27 03:32:00,
2013-03-26 21:42:00,33.0,28.0,29.95,ESE,109,4.0,6.0,80,-99.99,,,-99.99,0.000000,,2013-03-27 03:42:00,
2013-03-26 21:52:00,32.0,27.0,29.95,SE,128,3.0,4.0,82,-99.99,,,-99.99,0.000000,,2013-03-27 03:52:00,
2013-03-26 22:02:00,33.0,28.0,29.95,East,90,3.0,4.0,81,-99.99,,,-99.99,0.000000,,2013-03-27 04:02:00,
2013-03-26 22:12:00,32.0,27.0,29.95,East,98,4.0,5.0,80,-99.99,,,-99.99,0.000000,,2013-03-27 04:12:00,
2013-03-26 22:22:00,31.0,26.0,29.96,East,96,4.0,5.0,84,-99.99,,,-99.99,0.000000,,2013-03-27 04:22:00,
2013-03-26 22:32:00,30.0,26.0,29.96,East,97,5.0,6.0,85,-99.99,,,-99.99,0.000000,,2013-03-27 04:32:00,
2013-03-26 22:52:00,31.0,27.0,29.96,East,97,8.0,9.0,83,-99.99,,,-99.99,-0.100000,,2013-03-27 04:52:00,
2013-03-26 23:02:00,31.0,27.0,29.96,East,96,7.0,8.0,83,-99.99,,,-99.99,-0.100000,,2013-03-27 05:02:00,
2013-03-26 23:12:00,31.0,27.0,29.96,East,97,7.0,8.0,83,-99.99,,,-99.99,0.000000,,2013-03-27 05:12:00,
2013-03-26 23:22:00,31.0,27.0,29.96,East,99,7.0,7.0,83,-99.99,,,-99.99,-0.200000,,2013-03-27 05:22:00,
2013-03-26 23:32:00,31.0,26.0,29.96,East,89,6.0,8.0,84,-99.99,,,-99.99,-0.100000,,2013-03-27 05:32:00,
2013-03-26 23:42:00,30.0,26.0,29.96,East,92,5.0,6.0,84,-99.99,,,-99.99,0.000000,,2013-03-27 05:42:00,
2013-03-26 23:52:00,30.0,27.0,29.96,East,94,6.0,7.0,85,-99.99,,,-99.99,-0.100000,,2013-03-27 05:52:00,